METAR Data
IDs: Format: Raw Decoded Include TAF

Data at: 0928 UTC 26 Jan 2020

KC35 260915Z AUTO 27008KT 10SM OVC011 00/M01 A2989 RMK AO2 T10031010 PWINO
KC35 260855Z AUTO 28005KT 10SM OVC011 00/M01 A2990 RMK AO2 T10031010 PWINO
KC35 260835Z AUTO 28007KT 10SM OVC011 00/M01 A2990 RMK AO2 T10021008 PWINO
KC35 260815Z AUTO 27007KT 10SM OVC009 00/00 A2990 RMK AO2 T10021005 PWINO
KC35 260755Z AUTO 28007KT 10SM OVC009 00/00 A2990 RMK AO2 T10041004 PWINO
KC35 260735Z AUTO 28006KT 5SM OVC009 00/00 A2989 RMK AO2 T10031003 PWINO
KC35 260715Z AUTO 28006KT 7SM OVC009 00/00 A2990 RMK AO2 T10021005 PWINO
KC35 260655Z AUTO 29007KT 10SM OVC009 00/00 A2990 RMK AO2 T10011003 PWINO
KC35 260635Z AUTO 28009KT 10SM OVC009 00/00 A2990 RMK AO2 T10011002 PWINO
KC35 260615Z AUTO 28008KT 10SM OVC009 00/00 A2989 RMK AO2 T00000000 PWINO
KC35 260555Z AUTO 29005KT 10SM OVC007 00/00 A2989 RMK AO2 T10011001 10002 21002 400101002 PWINO
KC35 260535Z AUTO 28005KT 10SM OVC007 00/00 A2989 RMK AO2 T10011001 PWINO
KC35 260515Z AUTO 29006KT 7SM OVC007 00/00 A2989 RMK AO2 T10011001 PWINO
KC35 260455Z AUTO 28005KT 7SM OVC009 00/00 A2989 RMK AO2 T10011001 PWINO
KC35 260435Z AUTO 28007KT 7SM OVC009 00/00 A2989 RMK AO2 T10011001 PWINO
KC35 260415Z AUTO 29006KT 7SM BKN009 BKN032 OVC049 00/00 A2989 RMK AO2 T00000000 PWINO
KC35 260355Z AUTO 29006KT 10SM SCT011 SCT040 OVC049 00/00 A2988 RMK AO2 T00001002 PWINO
KC35 260335Z AUTO 28007KT 10SM SCT038 OVC047 00/00 A2988 RMK AO2 T00000000 PWINO
KC35 260315Z AUTO 29007KT 10SM BKN038 OVC049 00/00 A2987 RMK AO2 T00001001 PWINO
KC35 260255Z AUTO 29007KT 10SM OVC038 00/00 A2987 RMK AO2 T00000000 PWINO
KC35 260235Z AUTO 29007KT 10SM SCT016 SCT029 OVC041 00/00 A2987 RMK AO2 T00011002 PWINO
KC35 260215Z AUTO 29006KT 10SM SCT016 BKN031 OVC041 00/00 A2987 RMK AO2 T00021003 PWINO
KC35 260155Z AUTO 29006KT 10SM SCT016 BKN026 OVC032 00/00 A2988 RMK AO2 T00021002 PWINO
KC35 260135Z AUTO 29006KT 10SM SCT016 BKN024 OVC032 00/00 A2987 RMK AO2 T00021001 PWINO
KC35 260115Z AUTO 30006KT 10SM OVC016 00/00 A2987 RMK AO2 T00020000 PWINO
KC35 260055Z AUTO 29005KT 7SM SCT009 OVC014 00/00 A2987 RMK AO2 T00000000 PWINO
KC35 260035Z AUTO 29006KT 5SM SCT009 OVC014 00/00 A2987 RMK AO2 T00000000 PWINO
KC35 260015Z AUTO 30006KT 4SM OVC012 00/00 A2987 RMK AO2 T00000000 PWINO
KC35 252355Z AUTO 30008KT 7SM OVC010 00/00 A2986 RMK AO2 T00030001 10010 20001 PWINO
KC35 252335Z AUTO 29007KT 10SM OVC010 00/00 A2986 RMK AO2 T00020002 PWINO
KC35 252315Z AUTO 28006KT 7SM OVC010 00/00 A2985 RMK AO2 T00020002 PWINO
KC35 252255Z AUTO 29008KT 10SM OVC010 00/00 A2984 RMK AO2 T00030003 PWINO
KC35 252235Z AUTO 29006KT 10SM BKN010 OVC017 00/00 A2984 RMK AO2 T00030003 PWINO
KC35 252215Z AUTO 29007KT 10SM BKN008 BKN014 OVC019 00/00 A2984 RMK AO2 T00040004 PWINO
KC35 252155Z AUTO 28007KT 10SM OVC010 00/00 A2984 RMK AO2 T00030003 PWINO
KC35 252135Z AUTO 28007KT 10SM BKN010 OVC017 01/00 A2983 RMK AO2 T00060002 PWINO
KC35 252115Z AUTO 28007KT 10SM BKN012 OVC024 01/00 A2983 RMK AO2 T00050004 PWINO
KC35 252055Z AUTO 28007KT 10SM SCT010 BKN019 OVC024 01/00 A2983 RMK AO2 T00050000 PWINO
KC35 252035Z AUTO 29007KT 10SM SCT012 OVC017 01/00 A2982 RMK AO2 T00050000 PWINO
KC35 252015Z AUTO 29009KT 10SM OVC014 01/00 A2982 RMK AO2 T00060000 PWINO
KC35 251955Z AUTO 28006KT 10SM SCT010 BKN015 OVC021 01/00 A2981 RMK AO2 T00060000 PWINO
KC35 251935Z AUTO 30004KT 10SM BKN014 OVC020 01/00 A2982 RMK AO2 T00070001 PWINO
KC35 251915Z AUTO 29006KT 10SM SCT010 BKN016 OVC024 01/00 A2981 RMK AO2 T00070000 PWINO
KC35 251855Z AUTO 30005KT 10SM SCT016 OVC024 01/00 A2981 RMK AO2 T00101001 PWINO
KC35 251835Z AUTO 30007KT 10SM OVC018 01/00 A2982 RMK AO2 T00080000 PWINO
KC35 251815Z AUTO 30005KT 10SM SCT014 OVC020 01/00 A2981 RMK AO2 T00080000 PWINO
KC35 251755Z AUTO 32007KT 10SM OVC012 01/00 A2982 RMK AO2 T00070000 10007 20000 PWINO
KC35 251735Z AUTO 30005KT 10SM OVC010 01/00 A2982 RMK AO2 T00050003 PWINO
KC35 251715Z AUTO 31006KT 10SM OVC008 00/00 A2983 RMK AO2 T00040004 PWINO
KC35 251655Z AUTO 30006KT 10SM OVC010 00/00 A2983 RMK AO2 T00030003 PWINO
KC35 251635Z AUTO 29006KT 10SM OVC010 00/00 A2983 RMK AO2 T00030003 PWINO
KC35 251615Z AUTO 29004KT 10SM OVC010 00/00 A2983 RMK AO2 T00020002 PWINO
KC35 251555Z AUTO 29006KT 7SM OVC010 00/00 A2982 RMK AO2 T00010001 PWINO
KC35 251535Z AUTO 29004KT 7SM BKN007 OVC010 00/00 A2981 RMK AO2 T00000000 PWINO
KC35 251515Z AUTO 30004KT 1 1/4SM BKN004 OVC010 00/00 A2981 RMK AO2 T00000000 PWINO
KC35 251455Z AUTO 30005KT 1SM OVC008 00/00 A2981 RMK AO2 T00000000 PWINO
KC35 251435Z AUTO 29006KT 1 3/4SM OVC008 00/00 A2981 RMK AO2 T00000000 PWINO
KC35 251415Z AUTO 30006KT 5SM OVC010 00/00 A2981 RMK AO2 T00000000 PWINO
KC35 251355Z AUTO 28006KT 3SM OVC010 00/00 A2981 RMK AO2 T00000000 PWINO
KC35 251335Z AUTO 29006KT 5SM OVC008 00/00 A2980 RMK AO2 T00000000 PWINO
KC35 251315Z AUTO 29005KT 4SM OVC008 00/00 A2980 RMK AO2 T00000000 PWINO
KC35 251255Z AUTO 29005KT 5SM OVC008 00/00 A2980 RMK AO2 T00000000 PWINO
KC35 251235Z AUTO 29004KT 5SM OVC008 00/00 A2979 RMK AO2 T00000000 PWINO
KC35 251215Z AUTO 30003KT 3SM OVC008 00/00 A2979 RMK AO2 T00000000 PWINO
KC35 251155Z AUTO 30004KT 3SM OVC006 00/00 A2979 RMK AO2 60001 70007 T00000000 10002 20000 PWINO
KC35 251135Z AUTO 30004KT 3SM OVC006 00/00 A2979 RMK AO2 T00000000 PWINO
KC35 251115Z AUTO 29004KT 4SM OVC008 00/00 A2979 RMK AO2 T00000000 PWINO
KC35 251055Z AUTO 29004KT 5SM OVC008 00/00 A2979 RMK AO2 T00000000 PWINO
KC35 251035Z AUTO 29004KT 4SM OVC008 00/00 A2978 RMK AO2 T00000000 PWINO
KC35 251015Z AUTO 29005KT 4SM OVC008 00/00 A2978 RMK AO2 T00000000 PWINO
KC35 250955Z AUTO 31004KT 5SM OVC008 00/00 A2978 RMK AO2 T00020002 PWINO
KC35 250935Z AUTO 31006KT 10SM OVC008 00/00 A2978 RMK AO2 T00020002 PWINO
KC35 250915Z AUTO 32004KT 10SM OVC008 00/00 A2979 RMK AO2 T00010001 PWINO
KC35 250855Z AUTO 30003KT 7SM OVC008 00/00 A2979 RMK AO2 60001 T00010001 PWINO
KC35 250835Z AUTO 32005KT 10SM OVC008 00/00 A2979 RMK AO2 T00010001 PWINO
KC35 250815Z AUTO 33004KT 5SM OVC008 00/00 A2979 RMK AO2 T00010001 PWINO
KC35 250755Z AUTO 32007KT 10SM OVC008 00/00 A2979 RMK AO2 P0001 T00020002 PWINO
KC35 250735Z AUTO 32005KT 10SM OVC008 00/00 A2979 RMK AO2 P0001 T00010001 PWINO
KC35 250715Z AUTO 33004KT 5SM OVC008 00/00 A2979 RMK AO2 T00000000 PWINO
KC35 250655Z AUTO 31005KT 10SM OVC008 00/00 A2979 RMK AO2 T00000000 PWINO
KC35 250635Z AUTO 31003KT 4SM OVC008 00/00 A2979 RMK AO2 T00000000 PWINO
KC35 250615Z AUTO 31004KT 3SM OVC008 00/00 A2980 RMK AO2 T00000000 PWINO
KC35 250555Z AUTO 31003KT 3SM OVC008 00/00 A2981 RMK AO2 P0001 60003 T00000000 10005 20000 400071011 PWINO
KC35 250535Z AUTO 31003KT 2SM OVC006 00/00 A2981 RMK AO2 T00000000 PWINO
KC35 250515Z AUTO 00000KT 2SM OVC005 00/00 A2981 RMK AO2 T00000000 PWINO
KC35 250455Z AUTO 00000KT 1 3/4SM BKN005 OVC019 00/00 A2981 RMK AO2 P0002 T00000000 PWINO
KC35 250435Z AUTO 32004KT 2 1/2SM BKN005 OVC023 00/00 A2981 RMK AO2 P0001 T00000000 PWINO
KC35 250415Z AUTO 32004KT 1 3/4SM OVC005 00/00 A2982 RMK AO2 P0001 T00000000 PWINO
KC35 250355Z AUTO 33004KT 2SM OVC005 00/00 A2982 RMK AO2 T00000000 PWINO
KC35 250335Z AUTO 34005KT 2 1/2SM OVC005 00/00 A2983 RMK AO2 T00000000 PWINO
KC35 250315Z AUTO 33004KT 4SM OVC005 00/00 A2983 RMK AO2 T00000000 PWINO
KC35 250255Z AUTO 34005KT 4SM OVC005 00/00 A2983 RMK AO2 T00010001 PWINO
KC35 250235Z AUTO 35005KT 4SM OVC005 00/00 A2983 RMK AO2 T00010001 PWINO
KC35 250215Z AUTO 36005KT 5SM OVC005 00/00 A2983 RMK AO2 T00020002 PWINO
KC35 250155Z AUTO 36005KT 7SM OVC005 00/00 A2984 RMK AO2 T00030003 PWINO
KC35 250135Z AUTO 36006KT 7SM OVC005 00/00 A2984 RMK AO2 T00030003 PWINO
KC35 250115Z AUTO 36005KT 10SM OVC005 00/00 A2984 RMK AO2 T00030003 PWINO
KC35 250055Z AUTO 36005KT 10SM OVC005 00/00 A2984 RMK AO2 T00040004 PWINO
KC35 250035Z AUTO 01006KT 10SM OVC007 01/01 A2984 RMK AO2 T00050005 PWINO
KC35 250015Z AUTO 36006KT 10SM OVC007 01/01 A2984 RMK AO2 T00050005 PWINO
KC35 242355Z AUTO 36005KT 10SM OVC007 01/01 A2984 RMK AO2 T00050005 10007 20005 PWINO
KC35 242335Z AUTO 36006KT 10SM OVC007 01/01 A2984 RMK AO2 T00050005 PWINO
KC35 242315Z AUTO 01006KT 10SM OVC007 01/01 A2984 RMK AO2 T00050005 PWINO
KC35 242255Z AUTO 36007KT 10SM OVC007 01/01 A2984 RMK AO2 T00060006 PWINO
KC35 242235Z AUTO 36007KT 10SM OVC007 01/01 A2984 RMK AO2 T00060006 PWINO
KC35 242215Z AUTO 01006KT 10SM OVC007 01/01 A2984 RMK AO2 T00060006 PWINO
KC35 242155Z AUTO 01006KT 10SM OVC007 01/01 A2984 RMK AO2 T00060006 PWINO
KC35 242135Z AUTO 01006KT 7SM OVC007 01/01 A2984 RMK AO2 T00060006 PWINO